sensor_id;sensor_type;location;lat;lon;timestamp;pressure;altitude;pressure_sealevel;temperature;humidity
33845;BME280;20145;43.118;25.694;2023-02-28T00:00:28;100251.38;;;9.31;92.36
33845;BME280;20145;43.118;25.694;2023-02-28T00:02:54;100262.59;;;9.37;93.32
33845;BME280;20145;43.118;25.694;2023-02-28T00:05:22;100256.59;;;9.40;93.26
33845;BME280;20145;43.118;25.694;2023-02-28T00:07:49;100260.91;;;9.43;93.90
33845;BME280;20145;43.118;25.694;2023-02-28T00:10:20;100262.66;;;9.50;94.52
33845;BME280;20145;43.118;25.694;2023-02-28T00:12:50;100262.69;;;9.53;93.04
33845;BME280;20145;43.118;25.694;2023-02-28T00:15:16;100257.41;;;9.36;93.18
33845;BME280;20145;43.118;25.694;2023-02-28T00:17:43;100257.44;;;9.39;93.64
33845;BME280;20145;43.118;25.694;2023-02-28T00:20:10;100263.44;;;9.38;94.42
33845;BME280;20145;43.118;25.694;2023-02-28T00:22:45;100261.75;;;9.37;94.68
33845;BME280;20145;43.118;25.694;2023-02-28T00:25:14;100268.59;;;9.35;94.87
33845;BME280;20145;43.118;25.694;2023-02-28T00:27:40;100274.63;;;9.38;95.52
33845;BME280;20145;43.118;25.694;2023-02-28T00:30:10;100275.47;;;9.42;95.60
33845;BME280;20145;43.118;25.694;2023-02-28T00:32:35;100285.84;;;9.45;94.35
33845;BME280;20145;43.118;25.694;2023-02-28T00:35:02;100286.72;;;9.52;93.53
33845;BME280;20145;43.118;25.694;2023-02-28T00:37:28;100279.78;;;9.37;91.72
33845;BME280;20145;43.118;25.694;2023-02-28T00:39:53;100289.22;;;9.38;91.70
33845;BME280;20145;43.118;25.694;2023-02-28T00:42:19;100284.09;;;9.43;92.22
33845;BME280;20145;43.118;25.694;2023-02-28T00:44:44;100267.66;;;9.24;92.21
33845;BME280;20145;43.118;25.694;2023-02-28T00:47:10;100263.31;;;9.15;92.78
33845;BME280;20145;43.118;25.694;2023-02-28T00:49:35;100245.16;;;9.03;93.46
33845;BME280;20145;43.118;25.694;2023-02-28T00:52:01;100254.63;;;9.01;94.60
33845;BME280;20145;43.118;25.694;2023-02-28T00:54:27;100264.91;;;9.02;95.45
33845;BME280;20145;43.118;25.694;2023-02-28T00:56:52;100269.97;;;8.94;95.41
33845;BME280;20145;43.118;25.694;2023-02-28T00:59:18;100276.81;;;8.88;95.96
33845;BME280;20145;43.118;25.694;2023-02-28T01:01:45;100279.31;;;8.79;95.93
33845;BME280;20145;43.118;25.694;2023-02-28T01:04:12;100286.19;;;8.83;96.75
33845;BME280;20145;43.118;25.694;2023-02-28T01:06:37;100281.88;;;8.79;96.55
33845;BME280;20145;43.118;25.694;2023-02-28T01:09:05;100275.84;;;8.78;97.98
33845;BME280;20145;43.118;25.694;2023-02-28T01:11:31;100270.75;;;8.81;97.30
33845;BME280;20145;43.118;25.694;2023-02-28T01:13:57;100260.44;;;8.80;97.97
33845;BME280;20145;43.118;25.694;2023-02-28T01:16:23;100248.44;;;8.82;97.71
33845;BME280;20145;43.118;25.694;2023-02-28T01:18:49;100239.81;;;8.77;96.57
33845;BME280;20145;43.118;25.694;2023-02-28T01:21:17;100245.69;;;8.63;97.26
33845;BME280;20145;43.118;25.694;2023-02-28T01:23:43;100237.94;;;8.57;97.45
33845;BME280;20145;43.118;25.694;2023-02-28T01:26:14;100235.41;;;8.62;98.31
33845;BME280;20145;43.118;25.694;2023-02-28T01:28:40;100242.25;;;8.64;97.96
33845;BME280;20145;43.118;25.694;2023-02-28T01:31:07;100250.00;;;8.66;98.27
33845;BME280;20145;43.118;25.694;2023-02-28T01:33:33;100242.19;;;8.55;97.98
33845;BME280;20145;43.118;25.694;2023-02-28T01:36:21;100246.56;;;8.62;97.85
33845;BME280;20145;43.118;25.694;2023-02-28T01:38:45;100247.38;;;8.61;98.54
33845;BME280;20145;43.118;25.694;2023-02-28T01:41:22;100268.91;;;8.69;98.35
33845;BME280;20145;43.118;25.694;2023-02-28T01:46:14;100247.34;;;8.55;97.12
33845;BME280;20145;43.118;25.694;2023-02-28T01:49:02;100254.19;;;8.56;96.33
33845;BME280;20145;43.118;25.694;2023-02-28T01:51:37;100244.66;;;8.44;96.93
33845;BME280;20145;43.118;25.694;2023-02-28T01:54:09;100251.53;;;8.47;97.02
33845;BME280;20145;43.118;25.694;2023-02-28T01:56:45;100252.38;;;8.44;97.12
33845;BME280;20145;43.118;25.694;2023-02-28T01:59:27;100257.53;;;8.47;97.60
33845;BME280;20145;43.118;25.694;2023-02-28T02:01:55;100253.19;;;8.42;96.98
33845;BME280;20145;43.118;25.694;2023-02-28T02:04:22;100251.50;;;8.44;96.44
33845;BME280;20145;43.118;25.694;2023-02-28T02:06:49;100252.25;;;8.37;97.36
33845;BME280;20145;43.118;25.694;2023-02-28T02:09:15;100263.47;;;8.42;96.62
33845;BME280;20145;43.118;25.694;2023-02-28T02:11:42;100260.09;;;8.47;96.76
33845;BME280;20145;43.118;25.694;2023-02-28T02:14:34;100265.25;;;8.47;96.07
33845;BME280;20145;43.118;25.694;2023-02-28T02:19:49;100272.22;;;8.58;96.09
33845;BME280;20145;43.118;25.694;2023-02-28T02:35:56;100305.81;;;8.71;94.76
33845;BME280;20145;43.118;25.694;2023-02-28T02:38:33;100301.53;;;8.75;94.64
33845;BME280;20145;43.118;25.694;2023-02-28T02:43:57;100301.53;;;8.75;93.97
33845;BME280;20145;43.118;25.694;2023-02-28T02:46:31;100298.13;;;8.76;94.36
33845;BME280;20145;43.118;25.694;2023-02-28T02:49:00;100293.00;;;8.78;94.12
33845;BME280;20145;43.118;25.694;2023-02-28T02:51:30;100288.69;;;8.75;94.10
33845;BME280;20145;43.118;25.694;2023-02-28T02:54:03;100307.53;;;8.73;93.70
33845;BME280;20145;43.118;25.694;2023-02-28T02:56:31;100311.81;;;8.70;94.19
33845;BME280;20145;43.118;25.694;2023-02-28T02:59:07;100304.81;;;8.59;94.07
33845;BME280;20145;43.118;25.694;2023-02-28T03:01:36;100309.22;;;8.67;93.12
33845;BME280;20145;43.118;25.694;2023-02-28T03:04:09;100297.19;;;8.68;93.59
33845;BME280;20145;43.118;25.694;2023-02-28T03:06:36;100309.22;;;8.70;93.74
33845;BME280;20145;43.118;25.694;2023-02-28T03:09:02;100308.28;;;8.62;92.60
33845;BME280;20145;43.118;25.694;2023-02-28T03:11:29;100311.63;;;8.54;93.16
33845;BME280;20145;43.118;25.694;2023-02-28T03:16:59;100318.69;;;8.73;93.55
33845;BME280;20145;43.118;25.694;2023-02-28T03:33:14;100326.69;;;9.02;92.07
33845;BME280;20145;43.118;25.694;2023-02-28T03:35:42;100325.88;;;9.06;92.35
33845;BME280;20145;43.118;25.694;2023-02-28T03:38:27;100330.97;;;9.02;91.87
33845;BME280;20145;43.118;25.694;2023-02-28T03:41:27;100329.19;;;8.96;91.84
33845;BME280;20145;43.118;25.694;2023-02-28T03:43:58;100317.84;;;8.74;91.36
33845;BME280;20145;43.118;25.694;2023-02-28T03:46:27;100325.56;;;8.76;91.07
33845;BME280;20145;43.118;25.694;2023-02-28T03:49:11;100320.50;;;8.86;91.00
33845;BME280;20145;43.118;25.694;2023-02-28T03:51:41;100319.78;;;8.98;91.64
33845;BME280;20145;43.118;25.694;2023-02-28T03:54:13;100304.28;;;8.92;91.02
33845;BME280;20145;43.118;25.694;2023-02-28T03:59:22;100327.59;;;9.09;91.38
33845;BME280;20145;43.118;25.694;2023-02-28T04:01:51;100317.31;;;9.10;90.51
33845;BME280;20145;43.118;25.694;2023-02-28T04:04:17;100309.63;;;9.13;90.82
33845;BME280;20145;43.118;25.694;2023-02-28T04:06:44;100310.34;;;9.00;90.14
33845;BME280;20145;43.118;25.694;2023-02-28T04:09:13;100313.72;;;8.90;91.19
33845;BME280;20145;43.118;25.694;2023-02-28T04:11:41;100310.28;;;8.91;91.32
33845;BME280;20145;43.118;25.694;2023-02-28T04:14:08;100311.91;;;8.81;91.19
33845;BME280;20145;43.118;25.694;2023-02-28T04:16:37;100307.66;;;8.86;92.88
33845;BME280;20145;43.118;25.694;2023-02-28T04:19:04;100306.78;;;8.83;93.06
33845;BME280;20145;43.118;25.694;2023-02-28T04:21:33;100321.31;;;8.81;92.69
33845;BME280;20145;43.118;25.694;2023-02-28T04:23:59;100316.97;;;8.75;93.00
33845;BME280;20145;43.118;25.694;2023-02-28T04:26:34;100326.50;;;8.84;93.69
33845;BME280;20145;43.118;25.694;2023-02-28T04:29:01;100328.25;;;8.85;93.03
33845;BME280;20145;43.118;25.694;2023-02-28T04:31:26;100324.81;;;8.86;93.32
33845;BME280;20145;43.118;25.694;2023-02-28T04:33:52;100328.22;;;8.83;94.26
33845;BME280;20145;43.118;25.694;2023-02-28T04:36:18;100329.97;;;8.84;94.18
33845;BME280;20145;43.118;25.694;2023-02-28T04:38:44;100321.31;;;8.81;93.33
33845;BME280;20145;43.118;25.694;2023-02-28T04:41:11;100323.91;;;8.79;93.79
33845;BME280;20145;43.118;25.694;2023-02-28T04:43:36;100316.94;;;8.67;92.80
33845;BME280;20145;43.118;25.694;2023-02-28T04:46:04;100322.13;;;8.74;93.48
33845;BME280;20145;43.118;25.694;2023-02-28T04:48:32;100327.25;;;8.72;92.97
33845;BME280;20145;43.118;25.694;2023-02-28T04:51:02;100325.50;;;8.68;92.55
33845;BME280;20145;43.118;25.694;2023-02-28T04:53:29;100333.28;;;8.76;92.47
33845;BME280;20145;43.118;25.694;2023-02-28T04:55:56;100333.34;;;8.79;92.08
33845;BME280;20145;43.118;25.694;2023-02-28T04:58:21;100335.88;;;8.77;91.65
33845;BME280;20145;43.118;25.694;2023-02-28T05:00:53;100338.41;;;8.76;92.18
33845;BME280;20145;43.118;25.694;2023-02-28T05:03:20;100340.22;;;8.83;92.33
33845;BME280;20145;43.118;25.694;2023-02-28T05:05:47;100331.50;;;8.70;92.23
33845;BME280;20145;43.118;25.694;2023-02-28T05:08:13;100342.78;;;8.83;92.45
33845;BME280;20145;43.118;25.694;2023-02-28T05:10:39;100342.84;;;8.87;92.21
33845;BME280;20145;43.118;25.694;2023-02-28T05:13:04;100342.81;;;8.84;91.58
33845;BME280;20145;43.118;25.694;2023-02-28T05:15:30;100345.41;;;8.84;91.57
33845;BME280;20145;43.118;25.694;2023-02-28T05:17:55;100348.81;;;8.85;92.38
33845;BME280;20145;43.118;25.694;2023-02-28T05:20:21;100344.44;;;8.76;91.68
33845;BME280;20145;43.118;25.694;2023-02-28T05:22:47;100349.53;;;8.71;92.18
33845;BME280;20145;43.118;25.694;2023-02-28T05:25:16;100357.22;;;8.70;91.13
33845;BME280;20145;43.118;25.694;2023-02-28T05:27:43;100359.75;;;8.67;91.42
33845;BME280;20145;43.118;25.694;2023-02-28T05:30:09;100351.22;;;8.69;92.07
33845;BME280;20145;43.118;25.694;2023-02-28T05:32:39;100346.94;;;8.70;91.70
33845;BME280;20145;43.118;25.694;2023-02-28T05:35:10;100358.22;;;8.81;91.31
33845;BME280;20145;43.118;25.694;2023-02-28T05:37:37;100359.09;;;8.82;92.53
33845;BME280;20145;43.118;25.694;2023-02-28T05:40:04;100278.91;;;8.42;92.28
33845;BME280;20145;43.118;25.694;2023-02-28T05:42:32;100360.84;;;8.84;92.22
33845;BME280;20145;43.118;25.694;2023-02-28T05:44:58;100364.28;;;8.88;91.89
33845;BME280;20145;43.118;25.694;2023-02-28T05:47:24;100366.09;;;8.97;92.08
33845;BME280;20145;43.118;25.694;2023-02-28T05:49:49;100370.50;;;9.07;92.27
33845;BME280;20145;43.118;25.694;2023-02-28T05:52:15;100373.09;;;9.10;91.82
33845;BME280;20145;43.118;25.694;2023-02-28T05:54:41;100367.09;;;9.09;90.81
33845;BME280;20145;43.118;25.694;2023-02-28T05:57:06;100374.81;;;9.09;90.75
33845;BME280;20145;43.118;25.694;2023-02-28T05:59:32;100381.72;;;9.16;91.06
33845;BME280;20145;43.118;25.694;2023-02-28T06:01:57;100379.06;;;9.09;91.07
33845;BME280;20145;43.118;25.694;2023-02-28T06:04:23;100376.56;;;9.13;91.31
33845;BME280;20145;43.118;25.694;2023-02-28T06:06:49;100375.78;;;9.21;91.05
33845;BME280;20145;43.118;25.694;2023-02-28T06:09:15;100375.91;;;9.34;90.04
33845;BME280;20145;43.118;25.694;2023-02-28T06:11:41;100375.94;;;9.41;89.38
33845;BME280;20145;43.118;25.694;2023-02-28T06:14:07;100370.78;;;9.41;89.37
33845;BME280;20145;43.118;25.694;2023-02-28T06:16:37;100387.00;;;9.29;88.80
33845;BME280;20145;43.118;25.694;2023-02-28T06:19:03;100381.78;;;9.23;88.78
33845;BME280;20145;43.118;25.694;2023-02-28T06:21:29;100378.41;;;9.27;89.79
33845;BME280;20145;43.118;25.694;2023-02-28T06:23:55;100384.28;;;9.13;89.09
33845;BME280;20145;43.118;25.694;2023-02-28T06:26:21;100384.28;;;9.13;90.57
33845;BME280;20145;43.118;25.694;2023-02-28T06:28:47;100392.69;;;8.97;89.89
33845;BME280;20145;43.118;25.694;2023-02-28T06:31:15;100397.69;;;8.83;91.37
33845;BME280;20145;43.118;25.694;2023-02-28T06:33:41;100408.00;;;8.86;91.94
33845;BME280;20145;43.118;25.694;2023-02-28T06:36:09;100407.19;;;8.87;90.43
33845;BME280;20145;43.118;25.694;2023-02-28T06:38:36;100401.22;;;8.91;90.71
33845;BME280;20145;43.118;25.694;2023-02-28T06:41:03;100396.03;;;8.88;91.10
33845;BME280;20145;43.118;25.694;2023-02-28T06:43:31;100394.44;;;9.00;90.96
33845;BME280;20145;43.118;25.694;2023-02-28T06:46:00;100396.97;;;8.97;91.14
33845;BME280;20145;43.118;25.694;2023-02-28T06:48:27;100386.59;;;8.89;90.38
33845;BME280;20145;43.118;25.694;2023-02-28T06:51:05;100381.44;;;8.87;90.41
33845;BME280;20145;43.118;25.694;2023-02-28T06:53:32;100386.72;;;9.00;90.83
33845;BME280;20145;43.118;25.694;2023-02-28T06:55:58;100390.09;;;8.92;90.33
33845;BME280;20145;43.118;25.694;2023-02-28T06:58:23;100395.47;;;9.15;91.00
33845;BME280;20145;43.118;25.694;2023-02-28T07:00:52;100394.66;;;9.23;89.17
33845;BME280;20145;43.118;25.694;2023-02-28T07:03:18;100402.47;;;9.33;89.48
33845;BME280;20145;43.118;25.694;2023-02-28T07:05:44;100400.72;;;9.26;89.24
33845;BME280;20145;43.118;25.694;2023-02-28T07:08:10;100384.41;;;9.30;89.05
33845;BME280;20145;43.118;25.694;2023-02-28T07:10:39;100394.69;;;9.27;89.60
33845;BME280;20145;43.118;25.694;2023-02-28T07:13:07;100392.13;;;9.27;88.23
33845;BME280;20145;43.118;25.694;2023-02-28T07:15:33;100388.78;;;9.37;90.22
33845;BME280;20145;43.118;25.694;2023-02-28T07:17:58;100396.41;;;9.24;89.18
33845;BME280;20145;43.118;25.694;2023-02-28T07:20:24;100394.50;;;9.09;89.50
33845;BME280;20145;43.118;25.694;2023-02-28T07:22:50;100388.59;;;9.14;89.78
33845;BME280;20145;43.118;25.694;2023-02-28T07:25:25;100389.50;;;9.21;89.36
33845;BME280;20145;43.118;25.694;2023-02-28T07:27:51;100365.25;;;8.99;89.55
33845;BME280;20145;43.118;25.694;2023-02-28T07:30:18;100389.63;;;9.36;89.49
33845;BME280;20145;43.118;25.694;2023-02-28T07:32:43;100386.19;;;9.36;89.00
33845;BME280;20145;43.118;25.694;2023-02-28T07:35:09;100388.84;;;9.44;87.73
33845;BME280;20145;43.118;25.694;2023-02-28T07:37:34;100391.38;;;9.41;88.72
33845;BME280;20145;43.118;25.694;2023-02-28T07:40:04;100386.41;;;9.60;87.72
33845;BME280;20145;43.118;25.694;2023-02-28T07:42:32;100398.44;;;9.63;86.02
33845;BME280;20145;43.118;25.694;2023-02-28T07:44:57;100392.50;;;9.72;86.11
33845;BME280;20145;43.118;25.694;2023-02-28T07:47:24;100398.34;;;9.51;86.95
33845;BME280;20145;43.118;25.694;2023-02-28T07:49:50;100403.56;;;9.61;86.27
33845;BME280;20145;43.118;25.694;2023-02-28T07:52:16;100408.06;;;9.87;86.56
33845;BME280;20145;43.118;25.694;2023-02-28T07:54:41;100414.94;;;9.85;86.69
33845;BME280;20145;43.118;25.694;2023-02-28T07:57:07;100415.56;;;9.55;86.07
33845;BME280;20145;43.118;25.694;2023-02-28T07:59:33;100413.72;;;9.45;86.96
33845;BME280;20145;43.118;25.694;2023-02-28T08:01:59;100412.94;;;9.52;87.60
33845;BME280;20145;43.118;25.694;2023-02-28T08:04:25;100422.53;;;9.68;86.63
33845;BME280;20145;43.118;25.694;2023-02-28T08:06:50;100423.47;;;9.76;87.20
33845;BME280;20145;43.118;25.694;2023-02-28T08:09:19;100437.16;;;9.71;86.66
33845;BME280;20145;43.118;25.694;2023-02-28T08:11:45;100432.09;;;9.83;86.72
33845;BME280;20145;43.118;25.694;2023-02-28T08:14:10;100430.47;;;9.97;85.58
33845;BME280;20145;43.118;25.694;2023-02-28T08:16:36;100427.91;;;9.99;86.73
33845;BME280;20145;43.118;25.694;2023-02-28T08:19:02;100436.63;;;10.18;84.50
33845;BME280;20145;43.118;25.694;2023-02-28T08:21:28;100430.53;;;10.08;85.41
33845;BME280;20145;43.118;25.694;2023-02-28T08:23:53;100427.06;;;10.01;84.18
33845;BME280;20145;43.118;25.694;2023-02-28T08:26:19;100436.53;;;10.02;86.15
33845;BME280;20145;43.118;25.694;2023-02-28T08:28:46;100429.59;;;9.97;85.18
33845;BME280;20145;43.118;25.694;2023-02-28T08:31:14;100385.63;;;9.75;84.02
33845;BME280;20145;43.118;25.694;2023-02-28T08:33:40;100430.44;;;9.91;83.98
33845;BME280;20145;43.118;25.694;2023-02-28T08:36:08;100427.94;;;10.05;84.73
33845;BME280;20145;43.118;25.694;2023-02-28T08:38:35;100428.03;;;10.16;84.29
33845;BME280;20145;43.118;25.694;2023-02-28T08:41:04;100433.22;;;10.20;84.09
33845;BME280;20145;43.118;25.694;2023-02-28T08:43:31;100433.19;;;10.19;83.99
33845;BME280;20145;43.118;25.694;2023-02-28T08:45:57;100413.47;;;10.25;83.56
33845;BME280;20145;43.118;25.694;2023-02-28T08:48:26;100423.09;;;10.51;83.30
33845;BME280;20145;43.118;25.694;2023-02-28T08:51:01;100410.19;;;10.56;84.16
33845;BME280;20145;43.118;25.694;2023-02-28T08:53:27;100422.34;;;10.78;83.00
33845;BME280;20145;43.118;25.694;2023-02-28T08:56:13;100429.19;;;10.75;82.37
33845;BME280;20145;43.118;25.694;2023-02-28T08:58:41;100425.88;;;11.06;81.13
33845;BME280;20145;43.118;25.694;2023-02-28T09:01:11;100430.22;;;11.35;78.92
33845;BME280;20145;43.118;25.694;2023-02-28T09:03:38;100430.19;;;11.30;78.77
33845;BME280;20145;43.118;25.694;2023-02-28T09:06:04;100432.72;;;10.92;80.91
33845;BME280;20145;43.118;25.694;2023-02-28T09:08:31;100425.88;;;11.25;80.07
33845;BME280;20145;43.118;25.694;2023-02-28T09:10:57;100435.34;;;11.24;80.53
33845;BME280;20145;43.118;25.694;2023-02-28T09:13:27;100431.09;;;11.60;79.28
33845;BME280;20145;43.118;25.694;2023-02-28T09:15:53;100433.66;;;11.46;78.85
33845;BME280;20145;43.118;25.694;2023-02-28T09:18:20;100432.81;;;11.49;78.73
33845;BME280;20145;43.118;25.694;2023-02-28T09:20:45;100428.47;;;11.38;79.08
33845;BME280;20145;43.118;25.694;2023-02-28T09:23:12;100429.38;;;11.59;80.04
33845;BME280;20145;43.118;25.694;2023-02-28T09:25:45;100441.44;;;11.45;78.30
33845;BME280;20145;43.118;25.694;2023-02-28T09:28:11;100439.66;;;11.21;78.45
33845;BME280;20145;43.118;25.694;2023-02-28T09:30:37;100441.38;;;11.12;81.37
33845;BME280;20145;43.118;25.694;2023-02-28T09:33:03;100441.34;;;11.03;80.72
33845;BME280;20145;43.118;25.694;2023-02-28T09:35:29;100447.38;;;11.08;80.92
33845;BME280;20145;43.118;25.694;2023-02-28T09:37:56;100430.19;;;11.15;80.25
33845;BME280;20145;43.118;25.694;2023-02-28T09:40:24;100422.47;;;11.36;79.83
33845;BME280;20145;43.118;25.694;2023-02-28T09:42:52;100438.00;;;11.66;78.88
33845;BME280;20145;43.118;25.694;2023-02-28T09:45:30;100430.25;;;11.73;78.38
33845;BME280;20145;43.118;25.694;2023-02-28T09:48:04;100430.22;;;11.76;77.73
33845;BME280;20145;43.118;25.694;2023-02-28T09:50:59;100429.41;;;11.93;77.22
33845;BME280;20145;43.118;25.694;2023-02-28T09:53:29;100430.28;;;11.92;77.42
33845;BME280;20145;43.118;25.694;2023-02-28T09:56:03;100444.88;;;11.77;77.78
33845;BME280;20145;43.118;25.694;2023-02-28T10:03:55;100440.56;;;11.53;78.41
33845;BME280;20145;43.118;25.694;2023-02-28T10:06:27;100442.31;;;11.76;78.57
33845;BME280;20145;43.118;25.694;2023-02-28T10:11:22;100441.41;;;11.83;76.96
33845;BME280;20145;43.118;25.694;2023-02-28T10:14:27;100437.97;;;11.75;79.15
33845;BME280;20145;43.118;25.694;2023-02-28T10:19:26;100443.16;;;11.67;79.24
33845;BME280;20145;43.118;25.694;2023-02-28T10:22:21;100435.41;;;11.59;79.20
33845;BME280;20145;43.118;25.694;2023-02-28T10:24:52;100421.63;;;11.79;78.15
33845;BME280;20145;43.118;25.694;2023-02-28T10:27:20;100419.94;;;11.92;78.79
33845;BME280;20145;43.118;25.694;2023-02-28T10:29:48;100414.75;;;11.86;77.31
33845;BME280;20145;43.118;25.694;2023-02-28T10:32:17;100411.28;;;11.88;77.29
33845;BME280;20145;43.118;25.694;2023-02-28T10:34:43;100390.59;;;11.88;78.28
33845;BME280;20145;43.118;25.694;2023-02-28T10:37:11;100398.34;;;11.74;77.89
33845;BME280;20145;43.118;25.694;2023-02-28T10:39:45;100394.91;;;11.88;77.86
33845;BME280;20145;43.118;25.694;2023-02-28T10:42:37;100372.50;;;11.90;77.40
33845;BME280;20145;43.118;25.694;2023-02-28T10:48:02;100392.31;;;11.63;78.64
33845;BME280;20145;43.118;25.694;2023-02-28T10:50:51;100387.16;;;11.61;79.25
33845;BME280;20145;43.118;25.694;2023-02-28T11:01:41;100389.75;;;11.34;80.82
33845;BME280;20145;43.118;25.694;2023-02-28T11:04:34;100382.84;;;11.27;81.73
33845;BME280;20145;43.118;25.694;2023-02-28T11:07:19;100377.69;;;11.21;82.43
33845;BME280;20145;43.118;25.694;2023-02-28T11:09:47;100374.19;;;10.99;84.00
33845;BME280;20145;43.118;25.694;2023-02-28T11:12:31;100380.22;;;10.93;83.26
33845;BME280;20145;43.118;25.694;2023-02-28T11:15:05;100369.06;;;11.03;82.76
33845;BME280;20145;43.118;25.694;2023-02-28T11:17:33;100366.47;;;11.26;83.67
33845;BME280;20145;43.118;25.694;2023-02-28T11:20:07;100363.03;;;11.39;82.39
33845;BME280;20145;43.118;25.694;2023-02-28T11:22:44;100363.03;;;11.06;82.76
33845;BME280;20145;43.118;25.694;2023-02-28T11:25:30;100363.03;;;11.27;82.55
33845;BME280;20145;43.118;25.694;2023-02-28T11:28:00;100367.31;;;11.22;81.86
33845;BME280;20145;43.118;25.694;2023-02-28T11:32:54;100353.56;;;11.38;83.09
33845;BME280;20145;43.118;25.694;2023-02-28T11:35:33;100347.53;;;11.43;82.50
33845;BME280;20145;43.118;25.694;2023-02-28T11:38:00;100348.38;;;10.92;83.35
33845;BME280;20145;43.118;25.694;2023-02-28T11:40:39;100365.50;;;10.66;85.12
33845;BME280;20145;43.118;25.694;2023-02-28T11:49:18;100373.81;;;10.08;88.83
33845;BME280;20145;43.118;25.694;2023-02-28T11:51:54;100355.84;;;10.20;88.38
33845;BME280;20145;43.118;25.694;2023-02-28T11:55:12;100362.00;;;10.42;87.83
33845;BME280;20145;43.118;25.694;2023-02-28T12:08:10;100349.91;;;10.32;87.11
33845;BME280;20145;43.118;25.694;2023-02-28T12:19:21;100351.72;;;10.58;86.77
33845;BME280;20145;43.118;25.694;2023-02-28T12:26:50;100337.06;;;10.43;87.32
33845;BME280;20145;43.118;25.694;2023-02-28T12:29:29;100336.13;;;10.33;86.83
33845;BME280;20145;43.118;25.694;2023-02-28T12:32:05;100312.09;;;10.34;86.58
33845;BME280;20145;43.118;25.694;2023-02-28T12:34:35;100357.66;;;10.34;87.08
33845;BME280;20145;43.118;25.694;2023-02-28T12:37:05;100347.34;;;10.38;87.00
33845;BME280;20145;43.118;25.694;2023-02-28T12:39:37;100362.00;;;10.47;86.64
33845;BME280;20145;43.118;25.694;2023-02-28T12:42:24;100366.31;;;10.45;87.66
33845;BME280;20145;43.118;25.694;2023-02-28T12:44:58;100351.50;;;10.16;88.65
33845;BME280;20145;43.118;25.694;2023-02-28T12:47:24;100342.91;;;10.13;89.44
33845;BME280;20145;43.118;25.694;2023-02-28T12:50:02;100334.28;;;10.06;88.66
33845;BME280;20145;43.118;25.694;2023-02-28T12:55:08;100335.28;;;10.30;89.05
33845;BME280;20145;43.118;25.694;2023-02-28T13:00:15;100330.16;;;10.42;88.24
33845;BME280;20145;43.118;25.694;2023-02-28T13:11:29;100335.34;;;10.43;88.27
33845;BME280;20145;43.118;25.694;2023-02-28T13:14:02;100332.75;;;10.43;87.86
33845;BME280;20145;43.118;25.694;2023-02-28T13:16:51;100336.19;;;10.41;87.86
33845;BME280;20145;43.118;25.694;2023-02-28T13:19:20;100335.31;;;10.34;87.54
33845;BME280;20145;43.118;25.694;2023-02-28T13:21:49;100346.41;;;10.24;88.05
33845;BME280;20145;43.118;25.694;2023-02-28T13:24:46;100350.59;;;10.08;89.12
33845;BME280;20145;43.118;25.694;2023-02-28T13:29:43;100343.78;;;10.22;90.15
33845;BME280;20145;43.118;25.694;2023-02-28T13:47:30;100342.84;;;9.99;91.40
33845;BME280;20145;43.118;25.694;2023-02-28T13:50:29;100342.75;;;9.85;91.28
33845;BME280;20145;43.118;25.694;2023-02-28T13:56:09;100341.69;;;9.55;93.54
33845;BME280;20145;43.118;25.694;2023-02-28T14:07:01;100340.75;;;9.40;93.94
33845;BME280;20145;43.118;25.694;2023-02-28T14:09:37;100339.09;;;9.49;93.38
33845;BME280;20145;43.118;25.694;2023-02-28T14:18:36;100337.00;;;9.05;96.19
33845;BME280;20145;43.118;25.694;2023-02-28T14:21:28;100339.56;;;9.04;96.61
33845;BME280;20145;43.118;25.694;2023-02-28T14:30:11;100347.88;;;8.77;97.98
33845;BME280;20145;43.118;25.694;2023-02-28T14:38:17;100352.16;;;8.76;98.91
33845;BME280;20145;43.118;25.694;2023-02-28T14:40:45;100356.09;;;8.45;99.53
33845;BME280;20145;43.118;25.694;2023-02-28T14:43:24;100351.00;;;8.48;100.00
33845;BME280;20145;43.118;25.694;2023-02-28T14:45:58;100362.97;;;8.46;99.67
33845;BME280;20145;43.118;25.694;2023-02-28T14:48:25;100355.88;;;8.31;100.00
33845;BME280;20145;43.118;25.694;2023-02-28T14:50:57;100365.34;;;8.32;100.00
33845;BME280;20145;43.118;25.694;2023-02-28T14:53:27;100372.94;;;8.24;100.00
33845;BME280;20145;43.118;25.694;2023-02-28T14:55:54;100373.88;;;8.30;100.00
33845;BME280;20145;43.118;25.694;2023-02-28T15:00:49;100384.50;;;8.54;100.00
33845;BME280;20145;43.118;25.694;2023-02-28T15:03:21;100384.50;;;8.56;99.81
33845;BME280;20145;43.118;25.694;2023-02-28T15:05:58;100379.47;;;8.62;100.00
33845;BME280;20145;43.118;25.694;2023-02-28T15:08:25;100384.72;;;8.74;99.99
33845;BME280;20145;43.118;25.694;2023-02-28T15:10:58;100394.25;;;8.83;99.57
33845;BME280;20145;43.118;25.694;2023-02-28T15:13:46;100390.75;;;8.78;98.65
33845;BME280;20145;43.118;25.694;2023-02-28T15:16:26;100393.38;;;8.81;98.67
33845;BME280;20145;43.118;25.694;2023-02-28T15:19:02;100393.44;;;8.85;98.02
33845;BME280;20145;43.118;25.694;2023-02-28T15:21:35;100393.50;;;8.94;98.38
33845;BME280;20145;43.118;25.694;2023-02-28T15:26:32;100371.28;;;9.00;99.21
33845;BME280;20145;43.118;25.694;2023-02-28T15:29:01;100389.34;;;9.06;98.65
33845;BME280;20145;43.118;25.694;2023-02-28T15:31:45;100380.75;;;9.05;98.43
33845;BME280;20145;43.118;25.694;2023-02-28T15:34:20;100380.72;;;9.02;98.45
33845;BME280;20145;43.118;25.694;2023-02-28T15:36:48;100386.66;;;8.95;98.67
33845;BME280;20145;43.118;25.694;2023-02-28T15:39:22;100382.38;;;8.94;97.86
33845;BME280;20145;43.118;25.694;2023-02-28T15:41:49;100400.38;;;8.94;97.94
33845;BME280;20145;43.118;25.694;2023-02-28T15:44:26;100396.72;;;8.75;97.78